sensor_id;sensor_type;location;lat;lon;timestamp;P1;durP1;ratioP1;P2;durP2;ratioP2
40745;SDS011;26454;51.164;4.488;2023-04-06T00:01:20;28.00;;;17.58;;
40745;SDS011;26454;51.164;4.488;2023-04-06T00:03:46;30.50;;;18.17;;
40745;SDS011;26454;51.164;4.488;2023-04-06T00:06:13;33.03;;;18.80;;
40745;SDS011;26454;51.164;4.488;2023-04-06T00:08:39;31.35;;;18.20;;
40745;SDS011;26454;51.164;4.488;2023-04-06T00:11:06;32.95;;;17.88;;
40745;SDS011;26454;51.164;4.488;2023-04-06T00:13:32;27.63;;;18.15;;
40745;SDS011;26454;51.164;4.488;2023-04-06T00:15:58;27.13;;;16.52;;
40745;SDS011;26454;51.164;4.488;2023-04-06T00:18:27;33.67;;;18.67;;
40745;SDS011;26454;51.164;4.488;2023-04-06T00:20:55;27.85;;;16.98;;
40745;SDS011;26454;51.164;4.488;2023-04-06T00:23:21;28.05;;;17.95;;
40745;SDS011;26454;51.164;4.488;2023-04-06T00:25:47;30.08;;;17.70;;
40745;SDS011;26454;51.164;4.488;2023-04-06T00:28:13;28.63;;;16.58;;
40745;SDS011;26454;51.164;4.488;2023-04-06T00:30:40;26.42;;;16.45;;
40745;SDS011;26454;51.164;4.488;2023-04-06T00:33:06;28.50;;;15.93;;
40745;SDS011;26454;51.164;4.488;2023-04-06T00:35:32;27.77;;;16.77;;
40745;SDS011;26454;51.164;4.488;2023-04-06T00:37:59;27.70;;;17.15;;
40745;SDS011;26454;51.164;4.488;2023-04-06T00:40:27;29.33;;;15.98;;
40745;SDS011;26454;51.164;4.488;2023-04-06T00:42:57;28.42;;;15.25;;
40745;SDS011;26454;51.164;4.488;2023-04-06T00:45:25;32.15;;;17.95;;
40745;SDS011;26454;51.164;4.488;2023-04-06T00:47:54;26.67;;;16.20;;
40745;SDS011;26454;51.164;4.488;2023-04-06T00:50:20;27.73;;;16.30;;
40745;SDS011;26454;51.164;4.488;2023-04-06T00:52:48;26.80;;;15.52;;
40745;SDS011;26454;51.164;4.488;2023-04-06T00:55:17;28.25;;;16.42;;
40745;SDS011;26454;51.164;4.488;2023-04-06T00:57:43;26.17;;;16.05;;
40745;SDS011;26454;51.164;4.488;2023-04-06T01:00:09;24.40;;;14.95;;
40745;SDS011;26454;51.164;4.488;2023-04-06T01:02:35;29.95;;;15.50;;
40745;SDS011;26454;51.164;4.488;2023-04-06T01:05:02;23.88;;;14.73;;
40745;SDS011;26454;51.164;4.488;2023-04-06T01:07:29;24.90;;;15.18;;
40745;SDS011;26454;51.164;4.488;2023-04-06T01:09:55;26.33;;;15.15;;
40745;SDS011;26454;51.164;4.488;2023-04-06T01:12:23;25.90;;;15.13;;
40745;SDS011;26454;51.164;4.488;2023-04-06T01:14:52;23.73;;;14.70;;
40745;SDS011;26454;51.164;4.488;2023-04-06T01:17:19;24.50;;;14.52;;
40745;SDS011;26454;51.164;4.488;2023-04-06T01:19:45;23.77;;;15.10;;
40745;SDS011;26454;51.164;4.488;2023-04-06T01:22:15;24.42;;;15.52;;
40745;SDS011;26454;51.164;4.488;2023-04-06T01:24:46;27.17;;;15.63;;
40745;SDS011;26454;51.164;4.488;2023-04-06T01:27:16;25.33;;;14.73;;
40745;SDS011;26454;51.164;4.488;2023-04-06T01:29:43;24.35;;;13.55;;
40745;SDS011;26454;51.164;4.488;2023-04-06T01:32:09;24.55;;;14.45;;
40745;SDS011;26454;51.164;4.488;2023-04-06T01:34:35;26.25;;;15.95;;
40745;SDS011;26454;51.164;4.488;2023-04-06T01:37:01;24.58;;;14.70;;
40745;SDS011;26454;51.164;4.488;2023-04-06T01:39:28;22.23;;;14.93;;
40745;SDS011;26454;51.164;4.488;2023-04-06T01:41:55;25.92;;;15.05;;
40745;SDS011;26454;51.164;4.488;2023-04-06T01:44:24;23.23;;;14.48;;
40745;SDS011;26454;51.164;4.488;2023-04-06T01:46:50;25.95;;;14.82;;
40745;SDS011;26454;51.164;4.488;2023-04-06T01:49:16;27.20;;;14.73;;
40745;SDS011;26454;51.164;4.488;2023-04-06T01:51:42;25.83;;;15.13;;
40745;SDS011;26454;51.164;4.488;2023-04-06T01:54:08;23.58;;;14.15;;
40745;SDS011;26454;51.164;4.488;2023-04-06T01:56:36;23.27;;;14.70;;
40745;SDS011;26454;51.164;4.488;2023-04-06T01:59:04;21.27;;;14.93;;
40745;SDS011;26454;51.164;4.488;2023-04-06T02:01:31;25.77;;;15.15;;
40745;SDS011;26454;51.164;4.488;2023-04-06T02:04:01;23.70;;;14.23;;
40745;SDS011;26454;51.164;4.488;2023-04-06T02:06:31;23.27;;;13.50;;
40745;SDS011;26454;51.164;4.488;2023-04-06T02:08:58;25.90;;;14.82;;
40745;SDS011;26454;51.164;4.488;2023-04-06T02:11:24;22.33;;;14.05;;
40745;SDS011;26454;51.164;4.488;2023-04-06T02:13:50;25.13;;;13.82;;
40745;SDS011;26454;51.164;4.488;2023-04-06T02:16:18;23.90;;;13.98;;
40745;SDS011;26454;51.164;4.488;2023-04-06T02:18:45;22.33;;;14.38;;
40745;SDS011;26454;51.164;4.488;2023-04-06T02:21:11;21.75;;;12.93;;
40745;SDS011;26454;51.164;4.488;2023-04-06T02:23:38;23.70;;;14.90;;
40745;SDS011;26454;51.164;4.488;2023-04-06T02:26:07;22.25;;;14.48;;
40745;SDS011;26454;51.164;4.488;2023-04-06T02:28:33;23.33;;;13.98;;
40745;SDS011;26454;51.164;4.488;2023-04-06T02:30:59;26.55;;;14.85;;
40745;SDS011;26454;51.164;4.488;2023-04-06T02:33:26;27.05;;;15.43;;
40745;SDS011;26454;51.164;4.488;2023-04-06T02:35:54;23.55;;;14.75;;
40745;SDS011;26454;51.164;4.488;2023-04-06T02:38:23;23.23;;;14.50;;
40745;SDS011;26454;51.164;4.488;2023-04-06T02:40:49;18.15;;;13.48;;
40745;SDS011;26454;51.164;4.488;2023-04-06T02:43:16;23.50;;;15.20;;
40745;SDS011;26454;51.164;4.488;2023-04-06T02:45:42;23.35;;;13.95;;
40745;SDS011;26454;51.164;4.488;2023-04-06T02:48:13;23.20;;;14.82;;
40745;SDS011;26454;51.164;4.488;2023-04-06T02:50:40;22.90;;;14.23;;
40745;SDS011;26454;51.164;4.488;2023-04-06T02:53:07;25.88;;;15.30;;
40745;SDS011;26454;51.164;4.488;2023-04-06T02:55:34;21.77;;;13.13;;
40745;SDS011;26454;51.164;4.488;2023-04-06T02:58:00;21.27;;;13.93;;
40745;SDS011;26454;51.164;4.488;2023-04-06T03:00:30;20.27;;;13.93;;
40745;SDS011;26454;51.164;4.488;2023-04-06T03:02:57;21.85;;;14.40;;
40745;SDS011;26454;51.164;4.488;2023-04-06T03:05:23;20.83;;;13.82;;
40745;SDS011;26454;51.164;4.488;2023-04-06T03:07:51;24.05;;;14.65;;
40745;SDS011;26454;51.164;4.488;2023-04-06T03:10:17;22.85;;;14.40;;
40745;SDS011;26454;51.164;4.488;2023-04-06T03:12:44;25.00;;;14.38;;
40745;SDS011;26454;51.164;4.488;2023-04-06T03:15:10;21.42;;;14.35;;
40745;SDS011;26454;51.164;4.488;2023-04-06T03:17:38;21.33;;;14.02;;
40745;SDS011;26454;51.164;4.488;2023-04-06T03:20:04;21.60;;;13.20;;
40745;SDS011;26454;51.164;4.488;2023-04-06T03:22:31;21.42;;;14.18;;
40745;SDS011;26454;51.164;4.488;2023-04-06T03:24:58;24.17;;;12.57;;
40745;SDS011;26454;51.164;4.488;2023-04-06T03:27:26;25.40;;;14.63;;
40745;SDS011;26454;51.164;4.488;2023-04-06T03:29:56;22.88;;;14.00;;
40745;SDS011;26454;51.164;4.488;2023-04-06T03:32:22;21.98;;;13.48;;
40745;SDS011;26454;51.164;4.488;2023-04-06T03:34:49;21.98;;;14.38;;
40745;SDS011;26454;51.164;4.488;2023-04-06T03:37:16;20.83;;;13.50;;
40745;SDS011;26454;51.164;4.488;2023-04-06T03:39:42;22.67;;;13.43;;
40745;SDS011;26454;51.164;4.488;2023-04-06T03:42:09;19.77;;;13.25;;
40745;SDS011;26454;51.164;4.488;2023-04-06T03:44:39;22.85;;;13.55;;
40745;SDS011;26454;51.164;4.488;2023-04-06T03:47:05;22.03;;;13.63;;
40745;SDS011;26454;51.164;4.488;2023-04-06T03:49:31;22.85;;;14.52;;
40745;SDS011;26454;51.164;4.488;2023-04-06T03:51:58;28.15;;;13.82;;
40745;SDS011;26454;51.164;4.488;2023-04-06T03:54:24;24.23;;;15.52;;
40745;SDS011;26454;51.164;4.488;2023-04-06T03:56:50;22.15;;;13.65;;
40745;SDS011;26454;51.164;4.488;2023-04-06T03:59:17;22.55;;;14.25;;
40745;SDS011;26454;51.164;4.488;2023-04-06T04:01:43;23.55;;;13.85;;
40745;SDS011;26454;51.164;4.488;2023-04-06T04:04:10;24.70;;;13.73;;
40745;SDS011;26454;51.164;4.488;2023-04-06T04:06:38;23.40;;;14.30;;
40745;SDS011;26454;51.164;4.488;2023-04-06T04:09:05;27.70;;;15.13;;
40745;SDS011;26454;51.164;4.488;2023-04-06T04:11:32;26.23;;;14.00;;
40745;SDS011;26454;51.164;4.488;2023-04-06T04:14:02;20.20;;;14.05;;
40745;SDS011;26454;51.164;4.488;2023-04-06T04:18:57;22.50;;;14.13;;
40745;SDS011;26454;51.164;4.488;2023-04-06T04:21:23;22.45;;;13.73;;
40745;SDS011;26454;51.164;4.488;2023-04-06T04:23:51;22.08;;;13.77;;
40745;SDS011;26454;51.164;4.488;2023-04-06T04:26:17;22.00;;;14.27;;
40745;SDS011;26454;51.164;4.488;2023-04-06T04:28:48;23.88;;;13.95;;
40745;SDS011;26454;51.164;4.488;2023-04-06T04:31:14;20.98;;;13.63;;
40745;SDS011;26454;51.164;4.488;2023-04-06T04:33:43;25.20;;;14.37;;
40745;SDS011;26454;51.164;4.488;2023-04-06T04:36:11;23.77;;;14.55;;
40745;SDS011;26454;51.164;4.488;2023-04-06T04:38:37;21.88;;;14.60;;
40745;SDS011;26454;51.164;4.488;2023-04-06T04:41:03;23.27;;;14.15;;
40745;SDS011;26454;51.164;4.488;2023-04-06T04:43:29;22.98;;;14.32;;
40745;SDS011;26454;51.164;4.488;2023-04-06T04:45:55;25.27;;;15.70;;
40745;SDS011;26454;51.164;4.488;2023-04-06T04:48:24;26.67;;;15.63;;
40745;SDS011;26454;51.164;4.488;2023-04-06T04:50:50;23.88;;;14.52;;
40745;SDS011;26454;51.164;4.488;2023-04-06T04:53:17;23.63;;;14.82;;
40745;SDS011;26454;51.164;4.488;2023-04-06T04:55:43;22.25;;;14.73;;
40745;SDS011;26454;51.164;4.488;2023-04-06T04:58:09;24.33;;;15.88;;
40745;SDS011;26454;51.164;4.488;2023-04-06T05:00:39;28.30;;;15.13;;
40745;SDS011;26454;51.164;4.488;2023-04-06T05:03:05;20.05;;;14.15;;
40745;SDS011;26454;51.164;4.488;2023-04-06T05:05:33;21.77;;;14.15;;
40745;SDS011;26454;51.164;4.488;2023-04-06T05:08:01;22.00;;;13.90;;
40745;SDS011;26454;51.164;4.488;2023-04-06T05:10:31;21.42;;;13.70;;
40745;SDS011;26454;51.164;4.488;2023-04-06T05:12:57;22.55;;;14.93;;
40745;SDS011;26454;51.164;4.488;2023-04-06T05:15:23;25.58;;;13.95;;
40745;SDS011;26454;51.164;4.488;2023-04-06T05:17:50;23.05;;;14.77;;
40745;SDS011;26454;51.164;4.488;2023-04-06T05:20:16;26.92;;;14.20;;
40745;SDS011;26454;51.164;4.488;2023-04-06T05:22:42;26.95;;;15.45;;
40745;SDS011;26454;51.164;4.488;2023-04-06T05:25:08;20.85;;;13.98;;
40745;SDS011;26454;51.164;4.488;2023-04-06T05:27:35;22.65;;;13.68;;
40745;SDS011;26454;51.164;4.488;2023-04-06T05:30:02;21.88;;;14.65;;
40745;SDS011;26454;51.164;4.488;2023-04-06T05:32:28;22.45;;;13.77;;
40745;SDS011;26454;51.164;4.488;2023-04-06T05:34:54;25.15;;;15.07;;
40745;SDS011;26454;51.164;4.488;2023-04-06T05:37:21;26.00;;;15.02;;
40745;SDS011;26454;51.164;4.488;2023-04-06T05:39:47;26.48;;;14.63;;
40745;SDS011;26454;51.164;4.488;2023-04-06T05:42:13;25.05;;;15.05;;
40745;SDS011;26454;51.164;4.488;2023-04-06T05:44:42;26.73;;;15.68;;
40745;SDS011;26454;51.164;4.488;2023-04-06T05:47:08;25.92;;;14.32;;
40745;SDS011;26454;51.164;4.488;2023-04-06T05:49:35;26.70;;;15.05;;
40745;SDS011;26454;51.164;4.488;2023-04-06T05:52:01;24.17;;;15.20;;
40745;SDS011;26454;51.164;4.488;2023-04-06T05:54:27;27.70;;;15.43;;
40745;SDS011;26454;51.164;4.488;2023-04-06T05:56:53;24.52;;;14.90;;
40745;SDS011;26454;51.164;4.488;2023-04-06T05:59:23;28.70;;;16.75;;
40745;SDS011;26454;51.164;4.488;2023-04-06T06:01:52;26.55;;;16.02;;
40745;SDS011;26454;51.164;4.488;2023-04-06T06:04:21;27.42;;;16.55;;
40745;SDS011;26454;51.164;4.488;2023-04-06T06:06:47;23.80;;;15.30;;
40745;SDS011;26454;51.164;4.488;2023-04-06T06:09:13;29.10;;;16.95;;
40745;SDS011;26454;51.164;4.488;2023-04-06T06:11:40;29.25;;;16.90;;
40745;SDS011;26454;51.164;4.488;2023-04-06T06:14:06;27.58;;;16.25;;
40745;SDS011;26454;51.164;4.488;2023-04-06T06:16:33;25.55;;;15.63;;
40745;SDS011;26454;51.164;4.488;2023-04-06T06:18:59;29.42;;;16.33;;
40745;SDS011;26454;51.164;4.488;2023-04-06T06:21:25;29.23;;;17.20;;
40745;SDS011;26454;51.164;4.488;2023-04-06T06:23:51;24.60;;;16.17;;
40745;SDS011;26454;51.164;4.488;2023-04-06T06:26:19;35.72;;;17.80;;
40745;SDS011;26454;51.164;4.488;2023-04-06T06:28:45;26.88;;;18.23;;
40745;SDS011;26454;51.164;4.488;2023-04-06T06:31:11;31.63;;;18.73;;
40745;SDS011;26454;51.164;4.488;2023-04-06T06:33:37;33.28;;;19.85;;
40745;SDS011;26454;51.164;4.488;2023-04-06T06:36:05;32.53;;;19.48;;
40745;SDS011;26454;51.164;4.488;2023-04-06T06:38:31;31.77;;;19.80;;
40745;SDS011;26454;51.164;4.488;2023-04-06T06:40:57;32.78;;;21.88;;
40745;SDS011;26454;51.164;4.488;2023-04-06T06:43:24;33.83;;;21.13;;
40745;SDS011;26454;51.164;4.488;2023-04-06T06:45:50;35.22;;;21.00;;
40745;SDS011;26454;51.164;4.488;2023-04-06T06:48:16;32.42;;;20.73;;
40745;SDS011;26454;51.164;4.488;2023-04-06T06:50:42;37.17;;;21.40;;
40745;SDS011;26454;51.164;4.488;2023-04-06T06:53:08;30.08;;;21.85;;
40745;SDS011;26454;51.164;4.488;2023-04-06T06:55:35;41.47;;;24.33;;
40745;SDS011;26454;51.164;4.488;2023-04-06T06:58:02;34.08;;;22.65;;
40745;SDS011;26454;51.164;4.488;2023-04-06T07:00:28;36.10;;;22.52;;
40745;SDS011;26454;51.164;4.488;2023-04-06T07:02:54;38.83;;;24.42;;
40745;SDS011;26454;51.164;4.488;2023-04-06T07:05:20;37.60;;;23.23;;
40745;SDS011;26454;51.164;4.488;2023-04-06T07:07:46;33.78;;;23.25;;
40745;SDS011;26454;51.164;4.488;2023-04-06T07:10:12;36.22;;;25.17;;
40745;SDS011;26454;51.164;4.488;2023-04-06T07:12:39;37.13;;;25.08;;
40745;SDS011;26454;51.164;4.488;2023-04-06T07:15:05;40.10;;;26.13;;
40745;SDS011;26454;51.164;4.488;2023-04-06T07:17:31;46.33;;;26.10;;
40745;SDS011;26454;51.164;4.488;2023-04-06T07:19:57;38.35;;;24.63;;
40745;SDS011;26454;51.164;4.488;2023-04-06T07:22:26;45.08;;;28.88;;
40745;SDS011;26454;51.164;4.488;2023-04-06T07:24:52;40.55;;;26.65;;
40745;SDS011;26454;51.164;4.488;2023-04-06T07:27:19;39.92;;;26.27;;
40745;SDS011;26454;51.164;4.488;2023-04-06T07:29:46;36.67;;;23.88;;
40745;SDS011;26454;51.164;4.488;2023-04-06T07:32:12;37.30;;;24.63;;
40745;SDS011;26454;51.164;4.488;2023-04-06T07:34:41;39.65;;;23.17;;
40745;SDS011;26454;51.164;4.488;2023-04-06T07:37:07;34.45;;;24.33;;
40745;SDS011;26454;51.164;4.488;2023-04-06T07:39:33;40.97;;;26.50;;
40745;SDS011;26454;51.164;4.488;2023-04-06T07:42:01;38.97;;;26.50;;
40745;SDS011;26454;51.164;4.488;2023-04-06T07:44:28;38.25;;;24.83;;
40745;SDS011;26454;51.164;4.488;2023-04-06T07:46:55;38.05;;;25.90;;
40745;SDS011;26454;51.164;4.488;2023-04-06T07:49:21;38.50;;;26.00;;
40745;SDS011;26454;51.164;4.488;2023-04-06T07:51:48;43.63;;;26.05;;
40745;SDS011;26454;51.164;4.488;2023-04-06T07:54:15;39.85;;;25.02;;
40745;SDS011;26454;51.164;4.488;2023-04-06T07:56:41;38.88;;;25.48;;
40745;SDS011;26454;51.164;4.488;2023-04-06T07:59:12;37.72;;;23.88;;
40745;SDS011;26454;51.164;4.488;2023-04-06T08:01:38;43.03;;;26.45;;
40745;SDS011;26454;51.164;4.488;2023-04-06T08:04:04;37.95;;;24.25;;
40745;SDS011;26454;51.164;4.488;2023-04-06T08:06:32;39.42;;;23.50;;
40745;SDS011;26454;51.164;4.488;2023-04-06T08:08:59;36.95;;;23.85;;
40745;SDS011;26454;51.164;4.488;2023-04-06T08:11:25;37.63;;;22.73;;
40745;SDS011;26454;51.164;4.488;2023-04-06T08:13:51;29.50;;;19.70;;
40745;SDS011;26454;51.164;4.488;2023-04-06T08:16:18;32.92;;;21.10;;
40745;SDS011;26454;51.164;4.488;2023-04-06T08:18:44;33.15;;;20.88;;
40745;SDS011;26454;51.164;4.488;2023-04-06T08:21:10;30.20;;;19.67;;
40745;SDS011;26454;51.164;4.488;2023-04-06T08:23:37;24.88;;;17.33;;
40745;SDS011;26454;51.164;4.488;2023-04-06T08:26:03;29.50;;;18.50;;
40745;SDS011;26454;51.164;4.488;2023-04-06T08:28:30;26.05;;;17.65;;
40745;SDS011;26454;51.164;4.488;2023-04-06T08:30:57;23.10;;;17.08;;
40745;SDS011;26454;51.164;4.488;2023-04-06T08:33:26;31.23;;;18.63;;
40745;SDS011;26454;51.164;4.488;2023-04-06T08:35:52;24.20;;;16.48;;
40745;SDS011;26454;51.164;4.488;2023-04-06T08:38:20;24.73;;;17.13;;
40745;SDS011;26454;51.164;4.488;2023-04-06T08:40:46;26.30;;;17.77;;
40745;SDS011;26454;51.164;4.488;2023-04-06T08:43:14;27.88;;;17.35;;
40745;SDS011;26454;51.164;4.488;2023-04-06T08:45:43;25.25;;;16.88;;
40745;SDS011;26454;51.164;4.488;2023-04-06T08:48:10;19.45;;;14.88;;
40745;SDS011;26454;51.164;4.488;2023-04-06T08:50:37;21.35;;;15.40;;
40745;SDS011;26454;51.164;4.488;2023-04-06T08:53:04;21.52;;;15.13;;
40745;SDS011;26454;51.164;4.488;2023-04-06T08:55:34;27.70;;;15.15;;
40745;SDS011;26454;51.164;4.488;2023-04-06T08:58:01;24.88;;;14.40;;
40745;SDS011;26454;51.164;4.488;2023-04-06T09:00:27;23.08;;;13.52;;
40745;SDS011;26454;51.164;4.488;2023-04-06T09:02:54;21.33;;;13.27;;
40745;SDS011;26454;51.164;4.488;2023-04-06T09:05:21;19.55;;;12.23;;
40745;SDS011;26454;51.164;4.488;2023-04-06T09:07:47;13.93;;;10.75;;
40745;SDS011;26454;51.164;4.488;2023-04-06T09:10:14;17.52;;;11.82;;
40745;SDS011;26454;51.164;4.488;2023-04-06T09:12:42;29.08;;;11.68;;
40745;SDS011;26454;51.164;4.488;2023-04-06T09:15:17;15.38;;;11.30;;
40745;SDS011;26454;51.164;4.488;2023-04-06T09:17:45;18.92;;;11.07;;
40745;SDS011;26454;51.164;4.488;2023-04-06T09:20:14;16.55;;;11.38;;
40745;SDS011;26454;51.164;4.488;2023-04-06T09:22:42;15.35;;;10.05;;
40745;SDS011;26454;51.164;4.488;2023-04-06T09:25:17;14.73;;;9.70;;
40745;SDS011;26454;51.164;4.488;2023-04-06T09:27:48;16.52;;;10.13;;
40745;SDS011;26454;51.164;4.488;2023-04-06T09:30:15;17.58;;;10.48;;
40745;SDS011;26454;51.164;4.488;2023-04-06T09:32:46;16.48;;;9.80;;
40745;SDS011;26454;51.164;4.488;2023-04-06T09:35:12;14.77;;;10.10;;
40745;SDS011;26454;51.164;4.488;2023-04-06T09:37:38;17.17;;;10.77;;
40745;SDS011;26454;51.164;4.488;2023-04-06T09:40:07;16.25;;;11.15;;
40745;SDS011;26454;51.164;4.488;2023-04-06T09:42:34;18.98;;;10.40;;
40745;SDS011;26454;51.164;4.488;2023-04-06T09:45:01;17.38;;;12.18;;
40745;SDS011;26454;51.164;4.488;2023-04-06T09:47:28;14.98;;;11.98;;
40745;SDS011;26454;51.164;4.488;2023-04-06T09:49:58;28.13;;;13.15;;
40745;SDS011;26454;51.164;4.488;2023-04-06T09:55:01;19.35;;;13.07;;
40745;SDS011;26454;51.164;4.488;2023-04-06T10:00:12;20.50;;;14.10;;
40745;SDS011;26454;51.164;4.488;2023-04-06T10:02:45;54.10;;;16.15;;
40745;SDS011;26454;51.164;4.488;2023-04-06T10:05:27;23.38;;;14.23;;
40745;SDS011;26454;51.164;4.488;2023-04-06T10:07:56;21.60;;;13.85;;
40745;SDS011;26454;51.164;4.488;2023-04-06T10:10:23;22.80;;;14.95;;
40745;SDS011;26454;51.164;4.488;2023-04-06T10:12:49;43.38;;;16.35;;
40745;SDS011;26454;51.164;4.488;2023-04-06T10:15:15;24.38;;;14.80;;
40745;SDS011;26454;51.164;4.488;2023-04-06T10:17:45;23.70;;;15.83;;
40745;SDS011;26454;51.164;4.488;2023-04-06T10:20:16;38.55;;;15.90;;
40745;SDS011;26454;51.164;4.488;2023-04-06T10:25:33;24.67;;;15.55;;
40745;SDS011;26454;51.164;4.488;2023-04-06T10:28:06;21.60;;;14.73;;
40745;SDS011;26454;51.164;4.488;2023-04-06T10:30:33;24.83;;;15.80;;
40745;SDS011;26454;51.164;4.488;2023-04-06T10:33:01;26.23;;;16.17;;
40745;SDS011;26454;51.164;4.488;2023-04-06T10:38:04;28.20;;;16.00;;
40745;SDS011;26454;51.164;4.488;2023-04-06T10:40:30;25.60;;;16.95;;
40745;SDS011;26454;51.164;4.488;2023-04-06T10:45:34;26.17;;;17.92;;
40745;SDS011;26454;51.164;4.488;2023-04-06T10:48:12;21.17;;;15.52;;
40745;SDS011;26454;51.164;4.488;2023-04-06T10:50:39;37.58;;;17.67;;
40745;SDS011;26454;51.164;4.488;2023-04-06T10:53:06;22.85;;;16.40;;
40745;SDS011;26454;51.164;4.488;2023-04-06T10:55:32;27.85;;;17.75;;
40745;SDS011;26454;51.164;4.488;2023-04-06T10:57:59;23.60;;;16.23;;
40745;SDS011;26454;51.164;4.488;2023-04-06T11:00:25;26.27;;;17.30;;
40745;SDS011;26454;51.164;4.488;2023-04-06T11:02:51;25.85;;;16.23;;
40745;SDS011;26454;51.164;4.488;2023-04-06T11:05:24;25.52;;;17.48;;
40745;SDS011;26454;51.164;4.488;2023-04-06T11:07:52;26.17;;;17.42;;
40745;SDS011;26454;51.164;4.488;2023-04-06T11:10:22;23.45;;;16.85;;
40745;SDS011;26454;51.164;4.488;2023-04-06T11:12:55;24.88;;;17.73;;
40745;SDS011;26454;51.164;4.488;2023-04-06T11:15:22;30.85;;;17.58;;
40745;SDS011;26454;51.164;4.488;2023-04-06T11:17:48;26.77;;;17.17;;
40745;SDS011;26454;51.164;4.488;2023-04-06T11:20:15;28.45;;;17.95;;
40745;SDS011;26454;51.164;4.488;2023-04-06T11:22:50;30.55;;;19.42;;
40745;SDS011;26454;51.164;4.488;2023-04-06T11:25:16;22.48;;;16.70;;
40745;SDS011;26454;51.164;4.488;2023-04-06T11:27:44;25.70;;;18.02;;
40745;SDS011;26454;51.164;4.488;2023-04-06T11:30:11;23.73;;;17.67;;
40745;SDS011;26454;51.164;4.488;2023-04-06T11:32:39;37.17;;;18.40;;
40745;SDS011;26454;51.164;4.488;2023-04-06T11:35:10;24.73;;;16.77;;
40745;SDS011;26454;51.164;4.488;2023-04-06T11:37:38;25.42;;;18.42;;
40745;SDS011;26454;51.164;4.488;2023-04-06T11:40:04;25.52;;;16.30;;
40745;SDS011;26454;51.164;4.488;2023-04-06T11:42:34;25.77;;;17.42;;
40745;SDS011;26454;51.164;4.488;2023-04-06T11:45:00;37.05;;;18.20;;
40745;SDS011;26454;51.164;4.488;2023-04-06T11:47:28;34.38;;;18.98;;
40745;SDS011;26454;51.164;4.488;2023-04-06T11:49:55;24.40;;;17.50;;
40745;SDS011;26454;51.164;4.488;2023-04-06T11:52:25;33.20;;;18.50;;
40745;SDS011;26454;51.164;4.488;2023-04-06T11:54:52;24.17;;;17.25;;
40745;SDS011;26454;51.164;4.488;2023-04-06T11:57:19;27.45;;;18.40;;
40745;SDS011;26454;51.164;4.488;2023-04-06T11:59:46;26.98;;;18.88;;
40745;SDS011;26454;51.164;4.488;2023-04-06T12:02:12;33.65;;;20.63;;
40745;SDS011;26454;51.164;4.488;2023-04-06T12:04:38;25.25;;;18.02;;
40745;SDS011;26454;51.164;4.488;2023-04-06T12:07:05;26.67;;;18.33;;
40745;SDS011;26454;51.164;4.488;2023-04-06T12:09:31;28.90;;;20.30;;
40745;SDS011;26454;51.164;4.488;2023-04-06T12:11:57;35.10;;;20.35;;
40745;SDS011;26454;51.164;4.488;2023-04-06T12:14:24;28.25;;;19.70;;
40745;SDS011;26454;51.164;4.488;2023-04-06T12:16:55;26.40;;;20.00;;
40745;SDS011;26454;51.164;4.488;2023-04-06T12:19:21;26.52;;;18.63;;
40745;SDS011;26454;51.164;4.488;2023-04-06T12:21:52;25.15;;;17.98;;
40745;SDS011;26454;51.164;4.488;2023-04-06T12:24:21;24.73;;;17.80;;
40745;SDS011;26454;51.164;4.488;2023-04-06T12:26:47;23.38;;;17.10;;
40745;SDS011;26454;51.164;4.488;2023-04-06T12:29:13;38.75;;;17.40;;
40745;SDS011;26454;51.164;4.488;2023-04-06T12:31:39;24.75;;;17.13;;
40745;SDS011;26454;51.164;4.488;2023-04-06T12:34:07;23.42;;;16.73;;
40745;SDS011;26454;51.164;4.488;2023-04-06T12:36:34;36.08;;;18.92;;
40745;SDS011;26454;51.164;4.488;2023-04-06T12:39:00;25.80;;;17.95;;
40745;SDS011;26454;51.164;4.488;2023-04-06T12:41:27;25.48;;;18.63;;
40745;SDS011;26454;51.164;4.488;2023-04-06T12:43:54;25.75;;;18.15;;
40745;SDS011;26454;51.164;4.488;2023-04-06T12:46:20;134.18;;;26.92;;
40745;SDS011;26454;51.164;4.488;2023-04-06T12:48:46;29.40;;;19.17;;
40745;SDS011;26454;51.164;4.488;2023-04-06T12:51:12;36.65;;;18.73;;
40745;SDS011;26454;51.164;4.488;2023-04-06T12:53:38;24.60;;;17.75;;
40745;SDS011;26454;51.164;4.488;2023-04-06T12:56:13;51.88;;;21.15;;
40745;SDS011;26454;51.164;4.488;2023-04-06T12:58:40;26.23;;;19.27;;
40745;SDS011;26454;51.164;4.488;2023-04-06T13:01:07;26.30;;;18.30;;
40745;SDS011;26454;51.164;4.488;2023-04-06T13:03:33;28.65;;;20.10;;
40745;SDS011;26454;51.164;4.488;2023-04-06T13:06:00;29.05;;;19.92;;
40745;SDS011;26454;51.164;4.488;2023-04-06T13:08:26;27.95;;;19.45;;
40745;SDS011;26454;51.164;4.488;2023-04-06T13:10:53;24.63;;;17.50;;
40745;SDS011;26454;51.164;4.488;2023-04-06T13:13:22;27.92;;;19.02;;
40745;SDS011;26454;51.164;4.488;2023-04-06T13:15:50;26.60;;;19.00;;
40745;SDS011;26454;51.164;4.488;2023-04-06T13:18:17;66.85;;;19.88;;
40745;SDS011;26454;51.164;4.488;2023-04-06T13:20:43;24.40;;;18.30;;
40745;SDS011;26454;51.164;4.488;2023-04-06T13:23:09;49.20;;;20.23;;
40745;SDS011;26454;51.164;4.488;2023-04-06T13:25:37;60.75;;;22.02;;
40745;SDS011;26454;51.164;4.488;2023-04-06T13:28:03;26.77;;;19.42;;
40745;SDS011;26454;51.164;4.488;2023-04-06T13:30:29;28.48;;;17.83;;
40745;SDS011;26454;51.164;4.488;2023-04-06T13:32:55;23.02;;;16.80;;
40745;SDS011;26454;51.164;4.488;2023-04-06T13:35:22;33.33;;;19.95;;
40745;SDS011;26454;51.164;4.488;2023-04-06T13:37:48;23.60;;;17.00;;
40745;SDS011;26454;51.164;4.488;2023-04-06T13:40:16;58.53;;;19.75;;
40745;SDS011;26454;51.164;4.488;2023-04-06T13:42:42;21.33;;;18.20;;
40745;SDS011;26454;51.164;4.488;2023-04-06T13:45:10;30.20;;;18.00;;
40745;SDS011;26454;51.164;4.488;2023-04-06T13:47:36;22.73;;;16.88;;
40745;SDS011;26454;51.164;4.488;2023-04-06T13:50:03;21.05;;;18.05;;
40745;SDS011;26454;51.164;4.488;2023-04-06T13:52:29;22.10;;;17.27;;
40745;SDS011;26454;51.164;4.488;2023-04-06T13:54:58;40.58;;;19.38;;
40745;SDS011;26454;51.164;4.488;2023-04-06T13:57:24;81.82;;;22.08;;
40745;SDS011;26454;51.164;4.488;2023-04-06T13:59:50;23.98;;;18.08;;
40745;SDS011;26454;51.164;4.488;2023-04-06T14:02:17;26.58;;;18.90;;
40745;SDS011;26454;51.164;4.488;2023-04-06T14:04:44;25.40;;;19.80;;
40745;SDS011;26454;51.164;4.488;2023-04-06T14:07:11;25.85;;;20.58;;
40745;SDS011;26454;51.164;4.488;2023-04-06T14:09:37;29.98;;;20.52;;
40745;SDS011;26454;51.164;4.488;2023-04-06T14:12:05;27.58;;;20.75;;
40745;SDS011;26454;51.164;4.488;2023-04-06T14:14:31;30.65;;;21.92;;
40745;SDS011;26454;51.164;4.488;2023-04-06T14:16:58;32.40;;;24.08;;
40745;SDS011;26454;51.164;4.488;2023-04-06T14:19:24;33.20;;;23.40;;
40745;SDS011;26454;51.164;4.488;2023-04-06T14:21:50;31.77;;;22.70;;
40745;SDS011;26454;51.164;4.488;2023-04-06T14:24:17;33.55;;;22.63;;
40745;SDS011;26454;51.164;4.488;2023-04-06T14:26:44;27.77;;;21.65;;
40745;SDS011;26454;51.164;4.488;2023-04-06T14:29:10;32.70;;;23.95;;
40745;SDS011;26454;51.164;4.488;2023-04-06T14:31:36;30.90;;;23.27;;
40745;SDS011;26454;51.164;4.488;2023-04-06T14:34:02;35.05;;;25.25;;
40745;SDS011;26454;51.164;4.488;2023-04-06T14:36:31;39.90;;;26.17;;